sensor_id;sensor_type;location;lat;lon;timestamp;pressure;altitude;pressure_sealevel;temperature;humidity
75998;BME280;64685;48.762;44.822;2023-12-22T05:44:59;100197.09;;;5.21;100.00
75998;BME280;64685;48.762;44.822;2023-12-22T05:50:53;100203.44;;;5.22;100.00
75998;BME280;64685;48.762;44.822;2023-12-22T05:55:56;100218.91;;;5.41;100.00
75998;BME280;64685;48.762;44.822;2023-12-22T06:01:00;100227.75;;;5.43;100.00
75998;BME280;64685;48.762;44.822;2023-12-22T06:06:03;100212.78;;;5.44;100.00
75998;BME280;64685;48.762;44.822;2023-12-22T06:11:07;100210.53;;;5.46;100.00
75998;BME280;64685;48.762;44.822;2023-12-22T06:16:14;100210.28;;;5.61;100.00
75998;BME280;64685;48.762;44.822;2023-12-22T06:21:17;100230.53;;;5.57;100.00
75998;BME280;64685;48.762;44.822;2023-12-22T06:26:20;100228.63;;;5.39;100.00
75998;BME280;64685;48.762;44.822;2023-12-22T06:31:22;100206.63;;;5.47;100.00
75998;BME280;64685;48.762;44.822;2023-12-22T06:36:25;100218.66;;;5.56;100.00
75998;BME280;64685;48.762;44.822;2023-12-22T06:41:30;100223.22;;;5.66;100.00
75998;BME280;64685;48.762;44.822;2023-12-22T06:46:33;100221.34;;;5.61;100.00
75998;BME280;64685;48.762;44.822;2023-12-22T06:51:36;100227.69;;;5.62;100.00
75998;BME280;64685;48.762;44.822;2023-12-22T06:56:39;100232.00;;;5.54;100.00
75998;BME280;64685;48.762;44.822;2023-12-22T07:01:42;100234.66;;;5.59;100.00
75998;BME280;64685;48.762;44.822;2023-12-22T07:07:00;100229.09;;;5.78;100.00
75998;BME280;64685;48.762;44.822;2023-12-22T07:12:02;100204.44;;;5.63;100.00
75998;BME280;64685;48.762;44.822;2023-12-22T07:17:06;100228.13;;;5.87;100.00
75998;BME280;64685;48.762;44.822;2023-12-22T07:22:09;100201.03;;;5.84;100.00
75998;BME280;64685;48.762;44.822;2023-12-22T07:27:11;100205.06;;;5.92;100.00
75998;BME280;64685;48.762;44.822;2023-12-22T07:32:15;100196.91;;;5.82;100.00
75998;BME280;64685;48.762;44.822;2023-12-22T07:37:17;100207.91;;;5.87;100.00
75998;BME280;64685;48.762;44.822;2023-12-22T07:42:20;100208.53;;;5.97;100.00
75998;BME280;64685;48.762;44.822;2023-12-22T07:47:24;100199.75;;;6.22;100.00
75998;BME280;64685;48.762;44.822;2023-12-22T07:52:26;100158.88;;;6.14;100.00
75998;BME280;64685;48.762;44.822;2023-12-22T07:57:29;100170.78;;;6.15;100.00
75998;BME280;64685;48.762;44.822;2023-12-22T08:02:32;100153.44;;;6.09;100.00
75998;BME280;64685;48.762;44.822;2023-12-22T08:07:35;100152.63;;;6.09;100.00
75998;BME280;64685;48.762;44.822;2023-12-22T08:12:38;100147.38;;;6.21;100.00
75998;BME280;64685;48.762;44.822;2023-12-22T08:17:50;100131.06;;;6.06;100.00
75998;BME280;64685;48.762;44.822;2023-12-22T08:22:55;100125.72;;;6.09;100.00
75998;BME280;64685;48.762;44.822;2023-12-22T08:27:58;100116.06;;;6.07;100.00
75998;BME280;64685;48.762;44.822;2023-12-22T08:33:02;100126.84;;;6.08;100.00
75998;BME280;64685;48.762;44.822;2023-12-22T08:38:05;100127.25;;;6.15;100.00
75998;BME280;64685;48.762;44.822;2023-12-22T08:43:08;100121.28;;;6.22;100.00
75998;BME280;64685;48.762;44.822;2023-12-22T08:48:11;100109.59;;;6.25;100.00
75998;BME280;64685;48.762;44.822;2023-12-22T08:53:13;100107.22;;;6.32;100.00
75998;BME280;64685;48.762;44.822;2023-12-22T08:58:17;100096.34;;;6.35;100.00
75998;BME280;64685;48.762;44.822;2023-12-22T09:03:20;100101.13;;;6.43;100.00
75998;BME280;64685;48.762;44.822;2023-12-22T09:08:23;100083.78;;;6.51;100.00
75998;BME280;64685;48.762;44.822;2023-12-22T09:13:26;100090.34;;;6.55;100.00
75998;BME280;64685;48.762;44.822;2023-12-22T09:18:28;100083.09;;;6.68;100.00
75998;BME280;64685;48.762;44.822;2023-12-22T09:23:31;100072.53;;;6.70;100.00
75998;BME280;64685;48.762;44.822;2023-12-22T09:28:34;100068.00;;;6.60;100.00
75998;BME280;64685;48.762;44.822;2023-12-22T09:33:37;100069.47;;;6.58;100.00
75998;BME280;64685;48.762;44.822;2023-12-22T09:38:40;100066.75;;;6.66;100.00
75998;BME280;64685;48.762;44.822;2023-12-22T09:43:46;100054.38;;;6.64;100.00
75998;BME280;64685;48.762;44.822;2023-12-22T09:48:52;100046.97;;;6.59;100.00
75998;BME280;64685;48.762;44.822;2023-12-22T09:53:56;100047.09;;;6.76;100.00
75998;BME280;64685;48.762;44.822;2023-12-22T09:59:01;100023.22;;;6.67;100.00
75998;BME280;64685;48.762;44.822;2023-12-22T10:04:04;100012.16;;;6.75;100.00
75998;BME280;64685;48.762;44.822;2023-12-22T10:09:07;100012.88;;;6.81;100.00
75998;BME280;64685;48.762;44.822;2023-12-22T10:14:12;100013.69;;;6.81;100.00
75998;BME280;64685;48.762;44.822;2023-12-22T10:19:16;100007.34;;;6.81;100.00
75998;BME280;64685;48.762;44.822;2023-12-22T10:24:38;99994.38;;;6.76;100.00
75998;BME280;64685;48.762;44.822;2023-12-22T10:29:54;99991.44;;;6.73;100.00
75998;BME280;64685;48.762;44.822;2023-12-22T10:34:57;99987.44;;;6.65;100.00
75998;BME280;64685;48.762;44.822;2023-12-22T10:40:00;100003.59;;;6.85;100.00
75998;BME280;64685;48.762;44.822;2023-12-22T10:45:07;100012.00;;;6.94;100.00
75998;BME280;64685;48.762;44.822;2023-12-22T10:50:12;100024.84;;;6.90;100.00
75998;BME280;64685;48.762;44.822;2023-12-22T10:55:19;100021.47;;;6.93;100.00
75998;BME280;64685;48.762;44.822;2023-12-22T11:00:22;100018.91;;;7.05;100.00
75998;BME280;64685;48.762;44.822;2023-12-22T11:05:27;100032.28;;;7.03;100.00
75998;BME280;64685;48.762;44.822;2023-12-22T11:10:31;100038.41;;;6.91;100.00
75998;BME280;64685;48.762;44.822;2023-12-22T11:15:36;100028.94;;;6.92;100.00
75998;BME280;64685;48.762;44.822;2023-12-22T11:20:39;100010.97;;;6.90;100.00
75998;BME280;64685;48.762;44.822;2023-12-22T11:25:44;100020.19;;;6.99;100.00
75998;BME280;64685;48.762;44.822;2023-12-22T11:30:54;100021.88;;;6.86;100.00
75998;BME280;64685;48.762;44.822;2023-12-22T11:36:01;100009.59;;;6.79;100.00
75998;BME280;64685;48.762;44.822;2023-12-22T11:41:06;100004.75;;;6.62;100.00
75998;BME280;64685;48.762;44.822;2023-12-22T11:46:11;100015.84;;;6.62;100.00
75998;BME280;64685;48.762;44.822;2023-12-22T11:51:15;100005.34;;;6.59;100.00
75998;BME280;64685;48.762;44.822;2023-12-22T11:56:18;99995.44;;;6.45;100.00
75998;BME280;64685;48.762;44.822;2023-12-22T12:01:23;99993.38;;;6.50;100.00
75998;BME280;64685;48.762;44.822;2023-12-22T12:17:15;99980.13;;;6.47;100.00
75998;BME280;64685;48.762;44.822;2023-12-22T12:22:21;100011.34;;;6.53;100.00
75998;BME280;64685;48.762;44.822;2023-12-22T12:27:27;100010.03;;;6.72;100.00
75998;BME280;64685;48.762;44.822;2023-12-22T12:32:30;100012.41;;;6.65;100.00
75998;BME280;64685;48.762;44.822;2023-12-22T12:37:33;100008.06;;;6.73;100.00
75998;BME280;64685;48.762;44.822;2023-12-22T12:42:37;100010.09;;;6.81;100.00
75998;BME280;64685;48.762;44.822;2023-12-22T12:47:40;100001.38;;;6.74;100.00
75998;BME280;64685;48.762;44.822;2023-12-22T12:52:43;99994.31;;;6.46;100.00
75998;BME280;64685;48.762;44.822;2023-12-22T12:57:53;100016.41;;;6.37;100.00
75998;BME280;64685;48.762;44.822;2023-12-22T13:03:04;100006.69;;;6.26;100.00
75998;BME280;64685;48.762;44.822;2023-12-22T13:08:11;100015.91;;;6.35;100.00
75998;BME280;64685;48.762;44.822;2023-12-22T13:13:15;100011.59;;;6.43;100.00
75998;BME280;64685;48.762;44.822;2023-12-22T13:18:17;100005.25;;;6.29;100.00
75998;BME280;64685;48.762;44.822;2023-12-22T13:23:20;100016.34;;;6.29;100.00
75998;BME280;64685;48.762;44.822;2023-12-22T13:28:27;100012.06;;;6.09;100.00
75998;BME280;64685;48.762;44.822;2023-12-22T13:33:33;100000.69;;;5.97;100.00
75998;BME280;64685;48.762;44.822;2023-12-22T13:38:37;100012.91;;;5.96;100.00
75998;BME280;64685;48.762;44.822;2023-12-22T13:43:39;100015.19;;;5.94;100.00
75998;BME280;64685;48.762;44.822;2023-12-22T13:48:43;100014.75;;;6.01;100.00
75998;BME280;64685;48.762;44.822;2023-12-22T13:53:50;100009.41;;;6.04;100.00
75998;BME280;64685;48.762;44.822;2023-12-22T13:58:54;100004.72;;;5.91;100.00
75998;BME280;64685;48.762;44.822;2023-12-22T14:03:56;100015.09;;;5.86;100.00
75998;BME280;64685;48.762;44.822;2023-12-22T14:09:04;100002.03;;;5.86;100.00
75998;BME280;64685;48.762;44.822;2023-12-22T14:14:06;100006.59;;;5.82;100.00
75998;BME280;64685;48.762;44.822;2023-12-22T14:19:09;100004.00;;;5.86;100.00
75998;BME280;64685;48.762;44.822;2023-12-22T14:24:12;99999.28;;;5.86;100.00
75998;BME280;64685;48.762;44.822;2023-12-22T14:29:15;100007.69;;;5.95;100.00
75998;BME280;64685;48.762;44.822;2023-12-22T14:34:18;100008.81;;;5.80;100.00
75998;BME280;64685;48.762;44.822;2023-12-22T14:39:21;100001.25;;;5.86;100.00
75998;BME280;64685;48.762;44.822;2023-12-22T14:44:24;100000.41;;;5.85;100.00
75998;BME280;64685;48.762;44.822;2023-12-22T14:49:26;99987.38;;;5.72;100.00
75998;BME280;64685;48.762;44.822;2023-12-22T14:54:29;99984.69;;;5.67;100.00
75998;BME280;64685;48.762;44.822;2023-12-22T14:59:32;99985.72;;;5.58;100.00
75998;BME280;64685;48.762;44.822;2023-12-22T15:04:35;99987.66;;;5.57;100.00
75998;BME280;64685;48.762;44.822;2023-12-22T15:09:41;99957.84;;;5.54;100.00
75998;BME280;64685;48.762;44.822;2023-12-22T15:14:44;99950.97;;;5.52;100.00
75998;BME280;64685;48.762;44.822;2023-12-22T15:19:47;99952.59;;;5.53;100.00
75998;BME280;64685;48.762;44.822;2023-12-22T15:24:50;99954.63;;;5.47;100.00
75998;BME280;64685;48.762;44.822;2023-12-22T15:29:54;99950.44;;;5.50;100.00
75998;BME280;64685;48.762;44.822;2023-12-22T15:34:57;99955.06;;;5.54;100.00
75998;BME280;64685;48.762;44.822;2023-12-22T15:39:59;99946.66;;;5.46;100.00
75998;BME280;64685;48.762;44.822;2023-12-22T15:45:04;99950.53;;;5.58;100.00
75998;BME280;64685;48.762;44.822;2023-12-22T15:50:08;99940.78;;;5.61;100.00
75998;BME280;64685;48.762;44.822;2023-12-22T15:55:15;99933.72;;;5.41;100.00
75998;BME280;64685;48.762;44.822;2023-12-22T16:00:20;99927.97;;;5.51;100.00
75998;BME280;64685;48.762;44.822;2023-12-22T16:05:22;99924.47;;;5.59;100.00
75998;BME280;64685;48.762;44.822;2023-12-22T16:10:25;99929.63;;;5.52;100.00
75998;BME280;64685;48.762;44.822;2023-12-22T16:15:28;99912.91;;;5.44;100.00
75998;BME280;64685;48.762;44.822;2023-12-22T16:20:31;99927.59;;;5.31;100.00
75998;BME280;64685;48.762;44.822;2023-12-22T16:25:34;99926.84;;;5.25;100.00
75998;BME280;64685;48.762;44.822;2023-12-22T16:30:37;99937.31;;;5.28;100.00
75998;BME280;64685;48.762;44.822;2023-12-22T16:35:40;99912.41;;;5.28;100.00
75998;BME280;64685;48.762;44.822;2023-12-22T16:40:43;99921.66;;;5.24;100.00
75998;BME280;64685;48.762;44.822;2023-12-22T16:45:47;99918.25;;;5.13;100.00
75998;BME280;64685;48.762;44.822;2023-12-22T16:50:50;99923.78;;;5.13;100.00
75998;BME280;64685;48.762;44.822;2023-12-22T16:55:52;99920.72;;;5.15;100.00
75998;BME280;64685;48.762;44.822;2023-12-22T17:00:55;99908.00;;;5.14;100.00
75998;BME280;64685;48.762;44.822;2023-12-22T17:06:18;99904.19;;;5.10;100.00
75998;BME280;64685;48.762;44.822;2023-12-22T17:11:21;99907.69;;;5.02;100.00
75998;BME280;64685;48.762;44.822;2023-12-22T17:16:24;99902.34;;;4.92;100.00
75998;BME280;64685;48.762;44.822;2023-12-22T17:21:27;99892.72;;;5.03;100.00
75998;BME280;64685;48.762;44.822;2023-12-22T17:26:29;99883.38;;;4.99;100.00
75998;BME280;64685;48.762;44.822;2023-12-22T17:31:32;99864.34;;;4.84;100.00
75998;BME280;64685;48.762;44.822;2023-12-22T17:36:35;99864.13;;;4.80;100.00
75998;BME280;64685;48.762;44.822;2023-12-22T17:41:38;99868.75;;;4.85;100.00
75998;BME280;64685;48.762;44.822;2023-12-22T17:46:59;99863.91;;;4.90;100.00
75998;BME280;64685;48.762;44.822;2023-12-22T17:52:06;99862.28;;;4.76;100.00
75998;BME280;64685;48.762;44.822;2023-12-22T17:57:09;99871.41;;;4.90;100.00
75998;BME280;64685;48.762;44.822;2023-12-22T18:02:14;99853.19;;;4.75;100.00
75998;BME280;64685;48.762;44.822;2023-12-22T18:07:19;99838.59;;;4.70;100.00
75998;BME280;64685;48.762;44.822;2023-12-22T18:12:22;99841.06;;;4.71;100.00
75998;BME280;64685;48.762;44.822;2023-12-22T18:17:24;99832.25;;;4.69;100.00
75998;BME280;64685;48.762;44.822;2023-12-22T18:22:27;99834.59;;;4.62;100.00
75998;BME280;64685;48.762;44.822;2023-12-22T18:27:30;99813.22;;;4.54;100.00
75998;BME280;64685;48.762;44.822;2023-12-22T18:32:33;99818.44;;;4.56;100.00
75998;BME280;64685;48.762;44.822;2023-12-22T18:37:40;99820.28;;;4.60;100.00
75998;BME280;64685;48.762;44.822;2023-12-22T18:42:42;99829.69;;;4.59;100.00
75998;BME280;64685;48.762;44.822;2023-12-22T18:47:45;99820.66;;;4.54;100.00
75998;BME280;64685;48.762;44.822;2023-12-22T18:52:49;99800.19;;;4.68;100.00
75998;BME280;64685;48.762;44.822;2023-12-22T18:57:52;99800.09;;;4.60;100.00
75998;BME280;64685;48.762;44.822;2023-12-22T19:02:55;99790.88;;;4.51;100.00
75998;BME280;64685;48.762;44.822;2023-12-22T19:08:01;99799.56;;;4.44;100.00
75998;BME280;64685;48.762;44.822;2023-12-22T19:13:03;99787.19;;;4.42;100.00
75998;BME280;64685;48.762;44.822;2023-12-22T19:18:07;99798.63;;;4.35;100.00
75998;BME280;64685;48.762;44.822;2023-12-22T19:23:27;99805.38;;;4.43;100.00
75998;BME280;64685;48.762;44.822;2023-12-22T19:28:30;99781.25;;;4.48;100.00
75998;BME280;64685;48.762;44.822;2023-12-22T19:33:33;99785.44;;;4.46;100.00
75998;BME280;64685;48.762;44.822;2023-12-22T19:38:36;99781.16;;;4.53;100.00
75998;BME280;64685;48.762;44.822;2023-12-22T19:43:39;99778.50;;;4.48;100.00
75998;BME280;64685;48.762;44.822;2023-12-22T19:48:41;99785.16;;;4.47;100.00
75998;BME280;64685;48.762;44.822;2023-12-22T19:53:44;99782.97;;;4.44;100.00
75998;BME280;64685;48.762;44.822;2023-12-22T19:58:48;99788.59;;;4.39;100.00
75998;BME280;64685;48.762;44.822;2023-12-22T20:03:51;99786.88;;;4.43;100.00
75998;BME280;64685;48.762;44.822;2023-12-22T20:08:54;99776.75;;;4.39;100.00
75998;BME280;64685;48.762;44.822;2023-12-22T20:13:57;99790.25;;;4.40;100.00
75998;BME280;64685;48.762;44.822;2023-12-22T20:19:01;99785.94;;;4.34;100.00
75998;BME280;64685;48.762;44.822;2023-12-22T20:24:04;99777.75;;;4.43;100.00
75998;BME280;64685;48.762;44.822;2023-12-22T20:29:07;99782.06;;;4.49;100.00
75998;BME280;64685;48.762;44.822;2023-12-22T20:34:11;99780.13;;;4.49;100.00
75998;BME280;64685;48.762;44.822;2023-12-22T20:39:14;99780.44;;;4.61;100.00
75998;BME280;64685;48.762;44.822;2023-12-22T20:44:16;99766.91;;;4.60;100.00
75998;BME280;64685;48.762;44.822;2023-12-22T20:49:20;99775.72;;;4.62;100.00
75998;BME280;64685;48.762;44.822;2023-12-22T20:54:23;99764.78;;;4.57;100.00
75998;BME280;64685;48.762;44.822;2023-12-22T20:59:26;99756.97;;;4.45;100.00
75998;BME280;64685;48.762;44.822;2023-12-22T21:04:29;99757.28;;;4.57;100.00
75998;BME280;64685;48.762;44.822;2023-12-22T21:09:34;99744.09;;;4.54;100.00
75998;BME280;64685;48.762;44.822;2023-12-22T21:14:37;99750.75;;;4.53;100.00
75998;BME280;64685;48.762;44.822;2023-12-22T21:19:40;99740.09;;;4.47;100.00
75998;BME280;64685;48.762;44.822;2023-12-22T21:24:43;99743.78;;;4.42;100.00
75998;BME280;64685;48.762;44.822;2023-12-22T21:29:46;99741.03;;;4.42;100.00
75998;BME280;64685;48.762;44.822;2023-12-22T21:34:49;99751.56;;;4.54;100.00
75998;BME280;64685;48.762;44.822;2023-12-22T21:39:51;99737.44;;;4.69;100.00
75998;BME280;64685;48.762;44.822;2023-12-22T21:44:55;99727.69;;;4.31;100.00
75998;BME280;64685;48.762;44.822;2023-12-22T21:49:57;99726.66;;;4.40;100.00
75998;BME280;64685;48.762;44.822;2023-12-22T21:55:00;99718.81;;;4.34;100.00
75998;BME280;64685;48.762;44.822;2023-12-22T22:00:04;99718.06;;;4.28;100.00
75998;BME280;64685;48.762;44.822;2023-12-22T22:05:09;99707.31;;;4.27;100.00
75998;BME280;64685;48.762;44.822;2023-12-22T22:10:14;99698.50;;;3.98;100.00
75998;BME280;64685;48.762;44.822;2023-12-22T22:15:18;99712.13;;;4.08;100.00
75998;BME280;64685;48.762;44.822;2023-12-22T22:20:22;99703.81;;;4.08;100.00
75998;BME280;64685;48.762;44.822;2023-12-22T22:25:25;99698.09;;;4.04;100.00
75998;BME280;64685;48.762;44.822;2023-12-22T22:30:27;99692.84;;;3.89;100.00
75998;BME280;64685;48.762;44.822;2023-12-22T22:35:30;99690.41;;;4.01;100.00
75998;BME280;64685;48.762;44.822;2023-12-22T22:40:33;99681.38;;;3.82;100.00
75998;BME280;64685;48.762;44.822;2023-12-22T22:45:36;99684.88;;;3.88;100.00
75998;BME280;64685;48.762;44.822;2023-12-22T22:50:38;99685.16;;;3.73;100.00
75998;BME280;64685;48.762;44.822;2023-12-22T22:55:41;99687.50;;;3.66;100.00
75998;BME280;64685;48.762;44.822;2023-12-22T23:00:44;99689.22;;;3.62;100.00
75998;BME280;64685;48.762;44.822;2023-12-22T23:05:47;99699.72;;;3.60;100.00
75998;BME280;64685;48.762;44.822;2023-12-22T23:10:49;99703.94;;;3.71;100.00
75998;BME280;64685;48.762;44.822;2023-12-22T23:15:52;99696.16;;;3.59;100.00
75998;BME280;64685;48.762;44.822;2023-12-22T23:20:55;99699.31;;;3.53;100.00
75998;BME280;64685;48.762;44.822;2023-12-22T23:25:57;99696.03;;;3.51;100.00
75998;BME280;64685;48.762;44.822;2023-12-22T23:31:01;99689.69;;;3.50;100.00
75998;BME280;64685;48.762;44.822;2023-12-22T23:36:06;99683.38;;;3.50;100.00
75998;BME280;64685;48.762;44.822;2023-12-22T23:41:22;99681.09;;;3.52;100.00
75998;BME280;64685;48.762;44.822;2023-12-22T23:46:25;99668.22;;;3.47;100.00
75998;BME280;64685;48.762;44.822;2023-12-22T23:51:28;99666.06;;;3.44;100.00
75998;BME280;64685;48.762;44.822;2023-12-22T23:56:30;99662.78;;;3.42;100.00
